Pagina principale
METAR-TAF:

METAR-TAF

Aeroporti :

Aeroporto di Ouagadougou

Ouagadougou, Burkina Faso

latitudine: 12-21N, longitudine: 001-31W, altezza: 316 m

Osservazione

Il bollettino è stato emesso 1 ora e 14 minuti fa, alle 11:00 UTC
Vento 4 kt da ovest
Temperature 33°C
Umidità 56%
Pressione 1013 hPa
Visibilità 10 km o più
nessuna nube inferiore a 1500 m e nessun cumulonembo

METAR: DFFD 171100Z 26004KT CAVOK 33/23 Q1013 NOSIG

Ora: 12:14 (12:14 UTC)

Previsione

Il bollettino è stato emesso 1 ora e 14 minuti fa, alle 11:00 UTC
Previsione valida dal 17 alle 12 UTC al 18 alle 18 UTC
Vento 8 kt da ovest/sud-ovest
Visibilità 10 km o più
nessuna nube inferiore a 1500 m e nessun cumulonembo
Probabilità 30% :
Temporaneamente
dal 17 alle 16 UTC al 17 alle 24 UTC
Visibilità: 4000 m
Nubi sparse ad un'altezza di 2000 ft
Nubi sparse ad un'altezza di 3300 ft, Cumulonembo.
temporale, pioggia

TAF: DFFD 171100Z 1712/1818 24008KT CAVOK PROB30 TEMPO 1716/1724 4000 TSRA SCT020 SCT033CB

Osservazioni e previsioni meteorologiche di più di 4000 aeroporti (messaggi METAR e TAF).

Le stazioni disponibili sono rappresentate dai dischi gialli e rossi sulla carta.

Puntare il mouse per vedere il nome della stazione.

Clicca sopra per visualizzare le osservazioni e previsioni meteorologiche.

Per cambiare la mappa : fare clic sui pulsanti verdi con una croce nera per ingrandire, il pulsante verde con un trattino per diminuire, o sulla freccia verde per le mappe adiacenti.


METAR-TAF: